Data for 11/02/2014

Time Sea-Level Adjusted Pressure Absolute Pressure Temperature Relative Humidity Dew Point Precipitation   
(mb) (inHg) (mb) (inHg) (C) (F) (%) (C) (F) (mm) (in)
00:05 1009 29.8 838 24.75 7.8 46 51 -1.7 28.9 0 0
00:10 1009 29.8 838 24.75 7.8 46.1 49 -2.3 27.8 0 0
00:15 1009 29.8 838 24.75 7.9 46.2 51 -1.5 29.3 0 0
00:20 1009 29.8 838 24.75 7.8 46 50 -1.9 28.6 0 0
00:25 1009 29.8 838 24.75 7.5 45.5 52 -1.8 28.8 0 0
00:30 1008 29.77 838 24.75 7.1 44.8 53 -1.8 28.8 0 0
00:35 1008 29.77 838 24.75 6.9 44.5 53 -2 28.5 0 0
00:40 1008 29.77 838 24.75 7 44.5 51 -2.5 27.5 0 0
00:45 1008 29.77 838 24.75 7.2 45 51 -2.3 27.9 0 0
00:50 1008 29.77 837 24.72 7.6 45.7 49 -2.3 27.9 0 0
00:55 1008 29.77 838 24.75 7.5 45.5 49 -2.4 27.7 0 0
01:00 1008 29.77 838 24.75 7.3 45.1 50 -2.5 27.6 0 0
01:05 1008 29.77 838 24.75 7.2 45 51 -2.1 28.1 0 0
01:10 1008 29.77 838 24.75 7.1 44.7 50 -2.8 27 0 0
01:15 1009 29.8 838 24.75 7.1 44.8 51 -2.3 27.8 0 0
01:20 1009 29.8 838 24.75 7.3 45.2 52 -1.9 28.5 0 0
01:25 1009 29.8 838 24.75 7.5 45.4 52 -1.7 28.9 0 0
01:30 1009 29.8 838 24.75 7.3 45.2 52 -1.8 28.7 0 0
01:35 1009 29.8 838 24.75 7.1 44.7 54 -1.5 29.3 0 0
01:40 1009 29.8 838 24.75 6.5 43.8 57 -1.3 29.6 0 0
01:45 1009 29.8 838 24.75 6.3 43.4 56 -1.8 28.8 0 0
01:50 1009 29.8 838 24.75 6.7 44 56 -1.4 29.5 0 0
01:55 1009 29.8 838 24.75 6.5 43.8 59 -1 30.3 0 0
01:00 1009 29.8 838 24.75 6.1 42.9 59 -1.2 29.8 0 0
01:05 1009 29.8 838 24.75 5.8 42.5 59 -1.6 29.2 0 0
01:10 1009 29.8 838 24.75 6 42.8 55 -2.3 27.8 0 0
01:15 1009 29.8 838 24.75 6.6 44 50 -2.9 26.7 0 0
01:20 1009 29.8 838 24.75 7.2 44.9 51 -2.3 27.9 0 0
01:25 1009 29.8 838 24.75 7.3 45.1 51 -2.2 28.1 0 0
01:30 1009 29.8 838 24.75 7.2 44.9 52 -1.9 28.6 0 0
01:35 1009 29.8 838 24.75 7 44.6 52 -2.3 27.9 0 0
01:40 1009 29.8 838 24.75 7.2 44.9 50 -2.6 27.3 0 0
01:45 1009 29.8 838 24.75 7.1 44.8 49 -2.9 26.7 0 0
01:50 1009 29.8 838 24.75 7.3 45.1 47 -3.2 26.3 0 0
01:55 1009 29.8 838 24.75 7.2 45 49 -2.9 26.9 0 0
02:00 1009 29.8 838 24.75 6.9 44.4 53 -2 28.4 0 0
02:05 1009 29.8 838 24.75 6.2 43.2 56 -1.8 28.7 0 0
02:10 1009 29.8 838 24.75 6.1 43 52 -3 26.6 0 0
02:15 1009 29.8 838 24.75 6.4 43.5 51 -3 26.6 0 0
02:20 1009 29.8 838 24.75 6.5 43.7 52 -2.6 27.3 0 0
02:25 1009 29.8 838 24.75 6.3 43.4 50 -3.4 25.9 0 0
02:30 1009 29.8 838 24.75 6.5 43.7 49 -3.3 26.1 0 0
02:35 1009 29.8 838 24.75 6.7 44.1 49 -3.4 25.9 0 0
02:40 1009 29.8 838 24.75 6.8 44.3 47 -3.8 25.2 0 0
02:45 1009 29.8 838 24.75 7.1 44.8 47 -3.4 25.9 0 0
02:50 1009 29.8 838 24.75 7 44.6 47 -3.5 25.8 0 0
02:55 1009 29.8 838 24.75 7.1 44.9 46 -3.8 25.2 0 0
03:00 1009 29.8 838 24.75 7.1 44.8 44 -4.3 24.3 0 0
03:05 1009 29.8 838 24.75 7.1 44.7 44 -4.5 24 0 0
03:10 1009 29.8 838 24.75 7.1 44.8 46 -3.8 25.2 0 0
03:15 1009 29.8 838 24.75 6.7 44 46 -4.1 24.5 0 0
03:20 1009 29.8 838 24.75 6.6 43.9 46 -4.2 24.4 0 0
03:25 1009 29.8 838 24.75 6.9 44.3 45 -4.2 24.4 0 0
03:30 1009 29.8 838 24.75 6.9 44.4 46 -3.9 24.9 0 0
03:35 1009 29.8 838 24.75 6.8 44.2 47 -3.8 25.1 0 0
03:40 1009 29.8 839 24.78 6.5 43.8 48 -3.6 25.5 0 0
03:45 1010 29.83 839 24.78 6.3 43.4 50 -3.3 26 0 0
03:50 1010 29.83 839 24.78 6.1 42.9 49 -3.7 25.3 0 0
03:55 1010 29.83 839 24.78 6.2 43.2 48 -4 24.9 0 0
04:00 1010 29.83 839 24.78 6.5 43.7 47 -4.1 24.7 0 0
04:05 1010 29.83 839 24.78 6.8 44.3 47 -3.8 25.2 0 0
04:10 1010 29.83 839 24.78 6.7 44.1 44 -4.5 23.8 0 0
04:15 1010 29.83 839 24.78 6.6 43.8 47 -3.8 25.1 0 0
04:20 1010 29.83 839 24.78 6.2 43.2 47 -4.3 24.2 0 0
04:25 1010 29.83 839 24.78 6.3 43.3 45 -4.8 23.4 0 0
04:30 1010 29.83 839 24.78 6.5 43.8 45 -4.7 23.6 0 0
04:35 1010 29.83 839 24.78 6.5 43.7 46 -4.2 24.5 0 0
04:40 1010 29.83 839 24.78 6.3 43.4 47 -4.2 24.5 0 0
04:45 1010 29.83 839 24.78 6.2 43.2 48 -4.1 24.6 0 0
04:50 1010 29.83 839 24.78 6.3 43.4 48 -4 24.9 0 0
04:55 1010 29.83 840 24.81 6.4 43.5 47 -4.1 24.7 0 0
05:00 1010 29.83 840 24.81 6.2 43.2 51 -3 26.5 0 0
05:05 1010 29.83 840 24.81 5.7 42.2 51 -3.7 25.3 0 0
05:10 1010 29.83 840 24.81 5.7 42.3 49 -4.2 24.5 0 0
05:15 1010 29.83 840 24.81 6 42.8 47 -4.3 24.2 0 0
05:20 1011 29.85 840 24.81 6.1 42.9 46 -4.5 23.8 0 0
05:25 1011 29.85 840 24.81 6.2 43.1 47 -4.2 24.5 0 0
05:30 1011 29.85 840 24.81 6 42.9 47 -4.5 23.9 0 0
05:35 1011 29.85 840 24.81 6 42.7 51 -3.4 25.8 0 0
05:40 1011 29.85 840 24.81 5.4 41.7 56 -2.7 27.2 0 0
05:45 1011 29.85 840 24.81 4.9 40.9 57 -2.9 26.7 0 0
05:50 1011 29.85 840 24.81 4.8 40.7 59 -2.6 27.4 0 0
05:55 1011 29.85 840 24.81 4.7 40.4 60 -2.3 27.8 0 0
06:00 1011 29.85 840 24.81 4.5 40.1 60 -2.6 27.4 0 0
06:05 1011 29.85 840 24.81 4.5 40.1 61 -2.4 27.7 0 0
06:10 1011 29.85 841 24.83 4.5 40.1 61 -2.3 27.8 0 0
06:15 1011 29.85 841 24.83 4.5 40.2 60 -2.6 27.3 0 0
06:20 1011 29.85 841 24.83 4.6 40.4 61 -2.3 27.9 0 0
06:25 1011 29.85 841 24.83 4.7 40.4 60 -2.5 27.6 0 0
06:30 1011 29.85 841 24.83 4.6 40.3 59 -2.6 27.3 0 0
06:35 1011 29.85 841 24.83 4.6 40.3 60 -2.4 27.7 0 0
06:40 1011 29.85 841 24.83 4.6 40.3 59 -2.7 27.2 0 0
06:45 1011 29.85 841 24.83 4.7 40.5 60 -2.5 27.5 0 0
06:50 1012 29.88 841 24.83 4.6 40.3 60 -2.4 27.7 0 0
06:55 1012 29.88 841 24.83 4.5 40.1 60 -2.6 27.3 0 0
07:00 1012 29.88 841 24.83 4.5 40.2 61 -2.4 27.7 0 0
07:05 1012 29.88 841 24.83 4.5 40.2 58 -3 26.6 0 0
07:10 1012 29.88 841 24.83 4.7 40.4 60 -2.4 27.7 0 0
07:15 1012 29.88 841 24.83 4.5 40.2 59 -2.8 27 0 0
07:20 1012 29.88 841 24.83 4.6 40.3 59 -2.7 27.2 0 0
07:25 1012 29.88 841 24.83 4.6 40.3 61 -2.3 27.9 0 0
07:30 1012 29.88 841 24.83 4.5 40.1 61 -2.3 27.9 0 0
07:35 1012 29.88 841 24.83 4.5 40.1 61 -2.3 27.9 0 0
07:40 1012 29.88 842 24.86 4.5 40.2 61 -2.3 27.8 0 0
07:45 1012 29.88 842 24.86 4.6 40.3 57 -3.1 26.4 0 0
07:50 1012 29.88 842 24.86 5 40.9 56 -3.2 26.3 0 0
07:55 1012 29.88 842 24.86 5.1 41.2 56 -2.9 26.8 0 0
08:00 1013 29.91 842 24.86 5.2 41.3 54 -3.4 25.9 0 0
08:05 1013 29.91 842 24.86 5.3 41.6 55 -2.9 26.8 0 0
08:10 1013 29.91 842 24.86 5.3 41.5 54 -3.2 26.3 0 0
08:15 1013 29.91 842 24.86 5.3 41.6 53 -3.4 26 0 0
08:20 1013 29.91 842 24.86 5.4 41.7 53 -3.4 25.9 0 0
08:25 1013 29.91 842 24.86 5.4 41.7 55 -3 26.5 0 0
08:30 1013 29.91 842 24.86 5.3 41.5 55 -3.1 26.4 0 0
08:35 1013 29.91 842 24.86 5.2 41.4 55 -3.1 26.4 0 0
08:40 1013 29.91 842 24.86 5.3 41.5 55 -2.9 26.7 0 0
08:45 1013 29.91 842 24.86 5.4 41.6 56 -2.7 27.1 0 0
08:50 1013 29.91 842 24.86 5.4 41.7 54 -3.1 26.4 0 0
08:55 1013 29.91 842 24.86 5.4 41.8 53 -3.4 25.9 0 0
09:00 1013 29.91 842 24.86 5.4 41.8 55 -3 26.7 0 0
09:05 1013 29.91 843 24.89 5.3 41.6 55 -2.9 26.7 0 0
09:10 1013 29.91 843 24.89 5.2 41.4 56 -2.9 26.8 0 0
09:15 1013 29.91 843 24.89 5.2 41.3 56 -2.8 27 0 0
09:20 1014 29.94 843 24.89 5.2 41.3 57 -2.7 27.1 0 0
09:25 1014 29.94 843 24.89 5.4 41.6 55 -2.9 26.9 0 0
09:30 1014 29.94 843 24.89 5.5 41.9 51 -3.7 25.3 0 0
09:35 1014 29.94 843 24.89 5.6 42 53 -3.3 26 0 0
09:40 1014 29.94 843 24.89 5.4 41.8 54 -3.1 26.4 0 0
09:45 1014 29.94 843 24.89 5.4 41.6 54 -3.2 26.2 0 0
09:50 1014 29.94 843 24.89 5.3 41.5 55 -3 26.6 0 0
09:55 1014 29.94 843 24.89 5.2 41.4 55 -3.1 26.4 0 0
10:00 1014 29.94 843 24.89 5.2 41.4 55 -3.1 26.5 0 0
10:05 1014 29.94 843 24.89 5.3 41.6 55 -3 26.7 0 0
10:10 1014 29.94 843 24.89 5.4 41.7 55 -2.9 26.8 0 0
10:15 1014 29.94 843 24.89 5.4 41.7 55 -2.9 26.8 0 0
10:20 1014 29.94 844 24.92 5.3 41.6 55 -2.9 26.8 0 0
10:25 1014 29.94 844 24.92 5.3 41.5 56 -2.8 26.9 0 0
10:30 1014 29.94 844 24.92 5.3 41.6 57 -2.5 27.5 0 0
10:35 1015 29.97 844 24.92 5.4 41.7 57 -2.4 27.6 0 0
10:40 1015 29.97 844 24.92 5.4 41.7 57 -2.4 27.6 0 0
10:45 1015 29.97 844 24.92 5.5 42 54 -2.9 26.7 0 0
10:50 1015 29.97 844 24.92 5.7 42.2 56 -2.5 27.5 0 0
10:55 1015 29.97 844 24.92 5.7 42.2 55 -2.7 27.1 0 0
11:00 1015 29.97 844 24.92 5.8 42.4 56 -2.3 27.8 0 0
11:05 1015 29.97 844 24.92 5.9 42.6 52 -3.1 26.4 0 0
11:10 1015 29.97 844 24.92 5.9 42.7 52 -3.1 26.4 0 0
11:15 1015 29.97 844 24.92 6.1 43.1 51 -3.1 26.4 0 0
11:20 1015 29.97 844 24.92 6.4 43.4 51 -3.1 26.4 0 0
11:25 1015 29.97 844 24.92 6.3 43.4 51 -3.1 26.4 0 0
11:30 1015 29.97 844 24.92 6.1 43 57 -1.8 28.7 0 0
11:35 1015 29.97 844 24.92 5.8 42.4 59 -1.5 29.3 0 0
11:40 1015 29.97 844 24.92 5.3 41.6 64 -1 30.2 0 0
11:45 1015 29.97 844 24.92 5.1 41.1 66 -0.8 30.6 0 0
11:50 1015 29.97 844 24.92 5.3 41.5 61 -1.6 29.2 0 0
11:55 1015 29.97 844 24.92 5.6 42.1 60 -1.6 29 0 0
12:00 1015 29.97 844 24.92 5.7 42.2 61 -1.2 29.8 0 0
12:05 1015 29.97 844 24.92 5.5 41.9 63 -1 30.1 0 0
12:10 1015 29.97 844 24.92 5.7 42.2 61 -1.3 29.6 0 0
12:15 1015 29.97 844 24.92 6 42.8 61 -0.8 30.5 0 0
12:20 1015 29.97 844 24.92 6.3 43.3 58 -1.3 29.7 0 0
12:25 1015 29.97 844 24.92 5.9 42.6 60 -1.2 29.8 0 0
12:30 1015 29.97 844 24.92 5.9 42.6 60 -1.3 29.7 0 0
12:35 1015 29.97 844 24.92 5.6 42.2 60 -1.5 29.4 0 0
12:40 1015 29.97 844 24.92 5.3 41.6 62 -1.4 29.6 0 0
12:45 1015 29.97 844 24.92 5.1 41.2 63 -1.4 29.4 0 0
12:50 1015 29.97 844 24.92 5.2 41.3 65 -0.9 30.3 0 0
12:55 1015 29.97 844 24.92 5.5 41.8 61 -1.5 29.4 0 0
13:00 1015 29.97 844 24.92 5.5 41.9 62 -1.2 29.8 0 0
13:05 1015 29.97 845 24.95 5.4 41.7 61 -1.4 29.4 0 0
13:10 1015 29.97 845 24.95 5.2 41.3 67 -0.4 31.3 0 0
13:15 1015 29.97 845 24.95 4.6 40.2 71 -0.2 31.7 0 0
13:20 1015 29.97 845 24.95 4.4 39.9 75 0.4 32.8 0 0
13:25 1016 30 845 24.95 4.3 39.8 74 0.2 32.3 0 0
13:30 1016 30 845 24.95 4.4 39.9 75 0.3 32.6 0 0
13:35 1016 30 845 24.95 4.3 39.8 74 0.1 32.2 0 0
13:40 1016 30 845 24.95 4 39.2 74 -0.1 31.7 0 0
13:45 1016 30 845 24.95 3.9 39.1 76 0.1 32.1 0 0
13:50 1016 30 845 24.95 4.1 39.5 73 -0.3 31.5 0 0
13:55 1016 30 845 24.95 4.2 39.5 75 0.1 32.2 0 0
14:00 1016 30 845 24.95 4.1 39.4 74 0 32 0 0
14:05 1016 30 845 24.95 4 39.2 75 -0 31.9 0 0
14:10 1016 30 845 24.95 3.9 39.1 76 0.1 32.1 0 0
14:15 1016 30 845 24.95 4 39.2 72 -0.5 31 0 0
14:20 1016 30 845 24.95 4.5 40.1 70 -0.6 31 0 0
14:25 1016 30 845 24.95 4.8 40.6 66 -1 30.1 0 0
14:30 1016 30 845 24.95 4.8 40.6 70 -0.2 31.6 0 0
14:35 1016 30 845 24.95 4.8 40.6 71 -0.1 31.8 0 0
14:40 1016 30 845 24.95 4.8 40.6 68 -0.7 30.8 0 0
14:45 1016 30 845 24.95 4.7 40.4 72 0 32.1 0 0
14:50 1016 30 845 24.95 4.8 40.6 68 -0.6 30.9 0 0
14:55 1016 30 845 24.95 5 41.1 70 -0.1 31.9 0 0
15:00 1016 30 846 24.98 5.2 41.3 55 -3.2 26.3 0 0
15:05 1016 30 846 24.98 5.4 41.8 57 -2.4 27.7 0 0
15:10 1016 30 846 24.98 5.4 41.7 60 -1.8 28.8 0 0
15:15 1017 30.03 846 24.98 5.1 41.2 67 -0.6 30.9 0 0
15:20 1017 30.03 846 24.98 4.9 40.8 66 -0.9 30.4 0 0
15:25 1017 30.03 846 24.98 4.7 40.4 67 -0.8 30.5 0 0
15:30 1017 30.03 846 24.98 4.4 40 68 -0.9 30.4 0 0
15:35 1017 30.03 846 24.98 4.2 39.6 71 -0.6 31 0 0
15:40 1017 30.03 846 24.98 4.1 39.3 73 -0.3 31.4 0 0
15:45 1017 30.03 846 24.98 4.1 39.4 64 -2 28.4 0 0
15:50 1017 30.03 846 24.98 4.2 39.5 69 -0.9 30.3 0 0
15:55 1017 30.03 846 24.98 4.1 39.4 71 -0.8 30.6 0 0
16:00 1017 30.03 846 24.98 4.2 39.5 68 -1.3 29.7 0 0
16:05 1017 30.03 846 24.98 4.2 39.6 71 -0.5 31.1 0 0
16:10 1017 30.03 846 24.98 4.2 39.5 68 -1.1 30 0 0
16:15 1017 30.03 846 24.98 4.1 39.5 68 -1.2 29.8 0 0
16:20 1017 30.03 846 24.98 4.2 39.5 64 -2 28.4 0 0
16:25 1017 30.03 846 24.98 4.1 39.3 64 -2.2 28 0 0
16:30 1017 30.03 847 25.01 4.1 39.4 62 -2.6 27.3 0 0
16:35 1017 30.03 847 25.01 4.1 39.4 60 -3 26.6 0 0
16:40 1017 30.03 847 25.01 4 39.2 60 -3.1 26.5 0 0
16:45 1018 30.06 847 25.01 3.9 39 59 -3.4 26 0 0
16:50 1018 30.06 847 25.01 3.9 39 61 -3 26.6 0 0
16:55 1018 30.06 847 25.01 3.8 38.8 62 -2.9 26.8 0 0
17:00 1018 30.06 847 25.01 3.7 38.7 59 -3.5 25.7 0 0
17:05 1018 30.06 847 25.01 3.8 38.8 60 -3.4 26 0 0
17:10 1018 30.06 847 25.01 3.7 38.6 62 -2.9 26.7 0 0
17:15 1018 30.06 847 25.01 3.6 38.4 64 -2.5 27.4 0 0
17:20 1018 30.06 847 25.01 3.4 38.1 66 -2.4 27.6 0 0
17:25 1018 30.06 847 25.01 3.3 38 68 -2 28.4 0 0
17:30 1018 30.06 847 25.01 3.1 37.6 70 -1.8 28.8 0 0
17:35 1018 30.06 847 25.01 3 37.3 71 -1.8 28.8 0 0
17:40 1018 30.06 847 25.01 2.9 37.3 72 -1.7 28.9 0 0
17:45 1018 30.06 847 25.01 2.9 37.2 70 -2 28.3 0 0
17:50 1018 30.06 848 25.04 3 37.5 70 -2 28.5 0 0
17:55 1018 30.06 848 25.04 3 37.5 68 -2.3 27.9 0 0
18:00 1018 30.06 848 25.04 3 37.4 70 -2 28.3 0 0
18:05 1019 30.09 848 25.04 2.9 37.2 70 -2.1 28.2 0 0
18:10 1019 30.09 848 25.04 2.9 37.2 69 -2.2 28.1 0 0
18:15 1019 30.09 848 25.04 2.8 37.1 70 -2.1 28.3 0 0
18:20 1019 30.09 848 25.04 2.9 37.1 70 -2.1 28.2 0 0
18:25 1019 30.09 848 25.04 2.8 37.1 69 -2.2 28 0 0
18:30 1019 30.09 848 25.04 2.8 37 69 -2.3 27.9 0 0
18:35 1019 30.09 848 25.04 2.7 36.9 70 -2.3 27.9 0 0
18:40 1019 30.09 848 25.04 2.6 36.7 69 -2.5 27.5 0 0
18:45 1019 30.09 848 25.04 2.6 36.7 71 -2.1 28.2 0 0
18:50 1019 30.09 848 25.04 2.5 36.5 68 -2.7 27.1 0 0
18:55 1019 30.09 848 25.04 2.5 36.5 73 -1.8 28.7 0 0
19:00 1019 30.09 848 25.04 2.1 35.8 73 -2.3 27.9 0 0
19:05 1019 30.09 848 25.04 2.1 35.7 74 -2.1 28.2 0 0
19:10 1019 30.09 848 25.04 2 35.6 73 -2.4 27.7 0 0
19:15 1019 30.09 848 25.04 2 35.6 76 -1.8 28.7 0 0
19:20 1019 30.09 848 25.04 1.8 35.3 76 -2 28.4 0 0
19:25 1019 30.09 848 25.04 1.9 35.4 76 -1.9 28.6 0 0
19:30 1019 30.09 848 25.04 1.8 35.3 77 -1.8 28.8 0 0
19:35 1019 30.09 848 25.04 1.8 35.2 77 -1.9 28.6 0 0
19:40 1019 30.09 848 25.04 1.7 35 78 -1.7 29 0 0
19:45 1019 30.09 848 25.04 1.5 34.7 78 -1.9 28.6 0 0
19:50 1019 30.09 848 25.04 1.4 34.6 79 -1.8 28.7 0 0
19:55 1019 30.09 848 25.04 1.4 34.5 78 -2 28.4 0 0
20:00 1019 30.09 848 25.04 1.1 33.9 81 -1.9 28.6 0 0
20:05 1019 30.09 848 25.04 0.7 33.3 79 -2.5 27.4 0 0
20:10 1019 30.09 848 25.04 0.8 33.5 76 -3 26.6 0 0
20:15 1019 30.09 848 25.04 0.7 33.3 74 -3.4 25.9 0 0
20:20 1019 30.09 848 25.04 0.7 33.2 71 -3.9 24.9 0 0
20:25 1019 30.09 848 25.04 0.8 33.4 69 -4.3 24.3 0 0
20:30 1019 30.09 849 25.07 1.1 34.1 66 -4.4 24 0 0
20:35 1019 30.09 849 25.07 1.5 34.7 62 -5 23 0 0
20:40 1019 30.09 849 25.07 1.5 34.6 62 -5.1 22.8 0 0
20:45 1019 30.09 849 25.07 1.3 34.3 61 -5.4 22.2 0 0
20:50 1019 30.09 849 25.07 1.3 34.3 59 -5.8 21.6 0 0
20:55 1019 30.09 849 25.07 1.2 34.1 58 -6.2 20.9 0 0
21:00 1020 30.12 849 25.07 1.2 34.2 58 -6.1 21 0 0
21:05 1019 30.09 849 25.07 1.2 34.2 58 -6.2 20.8 0 0
21:10 1020 30.12 849 25.07 1.1 33.9 58 -6.2 20.8 0 0
21:15 1020 30.12 849 25.07 0.9 33.6 60 -6.1 21.1 0 0
21:20 1020 30.12 849 25.07 0.7 33.3 61 -6 21.2 0 0
21:25 1020 30.12 849 25.07 0.4 32.8 60 -6.3 20.6 0 0
21:30 1020 30.12 849 25.07 0.4 32.8 60 -6.4 20.5 0 0
21:35 1020 30.12 849 25.07 0.4 32.6 59 -6.7 19.9 0 0
21:40 1020 30.12 849 25.07 0.4 32.7 59 -6.7 19.9 0 0
21:45 1020 30.12 849 25.07 0.3 32.5 61 -6.4 20.4 0 0
21:50 1020 30.12 849 25.07 -0.1 31.8 62 -6.5 20.4 0 0
21:55 1020 30.12 849 25.07 -0.4 31.3 63 -6.6 20.1 0 0
22:00 1020 30.12 849 25.07 -0.5 31.1 63 -6.7 19.9 0 0
22:05 1020 30.12 849 25.07 -0.3 31.5 62 -6.8 19.7 0 0
22:10 1020 30.12 849 25.07 -0.3 31.4 61 -7 19.5 0 0
22:15 1020 30.12 849 25.07 -0.5 31.1 61 -7.2 19.1 0 0
22:20 1020 30.12 849 25.07 -0.7 30.8 64 -6.7 20 0 0
22:25 1020 30.12 849 25.07 -0.8 30.5 63 -7.1 19.3 0 0
22:30 1020 30.12 849 25.07 -0.5 31 63 -6.7 19.9 0 0
22:35 1020 30.12 849 25.07 -0.4 31.2 61 -7.1 19.2 0 0
22:40 1020 30.12 849 25.07 -0.1 31.8 59 -7.2 19.1 0 0
22:45 1020 30.12 850 25.1 -0 31.9 60 -6.9 19.6 0 0
22:50 1020 30.12 850 25.1 -0.2 31.6 63 -6.5 20.4 0 0
22:55 1020 30.12 850 25.1 -0.6 30.9 64 -6.7 20 0 0
23:00 1020 30.12 850 25.1 -0.9 30.4 63 -7.2 19.1 0 0
23:05 1021 30.15 850 25.1 -0.9 30.4 63 -7.1 19.3 0 0
23:10 1021 30.15 850 25.1 -1.2 29.9 64 -7.1 19.2 0 0
23:15 1020 30.12 850 25.1 -1.7 29 66 -7.1 19.1 0 0
23:20 1021 30.15 850 25.1 -2.1 28.3 67 -7.3 18.8 0 0
23:25 1020 30.12 850 25.1 -2.3 27.8 68 -7.5 18.6 0 0
23:30 1020 30.12 850 25.1 -2.6 27.4 71 -7.2 19 0 0
23:35 1020 30.12 850 25.1 -2.9 26.8 70 -7.5 18.5 0 0
23:40 1021 30.15 850 25.1 -3 26.6 72 -7.4 18.6 0 0
23:45 1021 30.15 850 25.1 -3.3 26.1 72 -7.7 18.1 0 0
23:50 1021 30.15 850 25.1 -3.2 26.2 71 -7.7 18.1 0 0
23:55 1021 30.15 850 25.1 -3.3 26 71 -7.9 17.9 0 0
24:00 1021 30.15 850 25.1 -3.1 26.4 71 -7.6 18.3 0 0